Impacts TAF Board INFO
FOR SITUATIONAL AWARENESS. NOT TO BE USED FOR FLIGHT PLANNING PURPOSES.
IDs:

KLAS - Las Vegas/McCarran I, NV, US

Issued at 1129 UTC 19 Nov 2017
Updated at 1357 UTC 19 Nov 2017
Potential Impact None Slight Moderate High
Time1256Z 19/14Z 19/15Z 19/16Z 19/17Z 19/18Z 19/19Z 19/20Z 19/21Z 19/22Z 19/23Z 20/00Z 20/01Z 20/02Z>>
Type OBS PRVL PRVL PRVL PRVL PRVL PRVL PRVL PRVL PRVL PRVL PRVL PRVL PRVL
VIS 10 >6 >6 >6 >6 >6 >6 >6 >6 >6 >6 >6 >6 >6
CIG -- -- -- -- -- -- -- -- -- -- -- -- -- --
Cover SCT SCT SCT SCT SCT SCT SCT SCT SCT SCT SCT SCT SCT SCT
FltCat VFR VFR VFR VFR VFR VFR VFR VFR VFR VFR VFR VFR VFR VFR
WX -- -- -- -- -- -- -- -- -- -- -- -- -- --
WDir 230 210 210 VRB VRB VRB VRB VRB VRB VRB VRB VRB VRB VRB
WSpd 4 6 6 5 5 5 5 5 5 5 5 5 5 5
WGst -- -- -- -- -- -- -- -- -- -- -- -- -- --

Raw TAF
KLAS 191129Z 1912/2018 21006KT P6SM SCT250
  FM191600 VRB05KT P6SM SCT250
  FM200300 21006KT P6SM BKN250
  FM201600 VRB05KT P6SM BKN250


Raw METAR
KLAS 191256Z 23004KT 10SM SCT250 06/M12 A3018 RMK AO2 SLP220 T00561122
KLAS 191156Z 19004KT 10SM BKN250 06/M12 A3019 RMK AO2 SLP221 T00561117 10089 20050 58009
KLAS 191056Z 20004KT 10SM BKN250 06/M11 A3020 RMK AO2 SLP225 T00611111

METAR Board
Radar Display
Forecast Discussion

FOR SITUATIONAL AWARENESS. NOT TO BE USED FOR FLIGHT PLANNING PURPOSES.